Time;durP1;ratioP1;P1;durP2;ratioP2;P2;SDS_P1;SDS_P2;PMS_P1;PMS_P2;Temp;Humidity;BMP_temperature;BMP_pressure;BME280_temperature;BME280_humidity;BME280_pressure;Samples;Min_cycle;Max_cycle;Signal;HPM_P1;HPM_P2
2022/09/19 00:00:34;;;;;;;;;;;12.50;99.90;;;;;;5050095;28;19978;-74
2022/09/19 00:03:00;;;;;;;;;;;10.80;99.90;;;;;;5043133;28;19920;-72
2022/09/19 00:05:25;;;;;;;;;;;10.60;99.90;;;;;;5050587;28;19917;-73
2022/09/19 00:07:51;;;;;;;;;;;12.00;99.90;;;;;;5053096;28;20291;-72
2022/09/19 00:10:17;;;;;;;;;;;10.90;99.90;;;;;;5041452;28;19936;-73
2022/09/19 00:12:42;;;;;;;;;;;12.60;99.90;;;;;;5054803;28;19916;-76
2022/09/19 00:15:08;;;;;;;;;;;12.30;99.90;;;;;;5039957;28;20027;-73
2022/09/19 00:17:33;;;;;;;;;;;11.30;99.90;;;;;;5026149;28;19970;-73
2022/09/19 00:19:59;;;;;;;;;;;11.60;99.90;;;;;;5048065;28;19928;-73
2022/09/19 00:22:25;;;;;;;;;;;10.90;99.90;;;;;;5051358;28;19928;-73
2022/09/19 00:24:50;;;;;;;;;;;12.30;99.90;;;;;;5054529;28;19920;-74
2022/09/19 00:27:18;;;;;;;;;;;11.30;99.90;;;;;;5055204;28;19920;-72
2022/09/19 00:29:44;;;;;;;;;;;11.90;99.90;;;;;;5055310;28;19917;-73
2022/09/19 00:32:13;;;;;;;;;;;10.70;99.90;;;;;;5057887;28;19923;-72
2022/09/19 00:34:43;;;;;;;;;;;11.10;99.90;;;;;;5052587;28;19993;-73
2022/09/19 00:37:09;;;;;;;;;;;12.70;99.90;;;;;;5060994;28;19921;-73
2022/09/19 00:39:35;;;;;;;;;;;10.90;99.90;;;;;;5051995;28;19923;-73
2022/09/19 00:42:00;;;;;;;;;;;12.40;99.90;;;;;;5054417;28;19926;-73
2022/09/19 00:44:26;;;;;;;;;;;10.60;99.90;;;;;;5052678;28;19925;-73
2022/09/19 00:46:51;;;;;;;;;;;12.50;99.90;;;;;;5056378;28;20008;-73
2022/09/19 00:49:18;;;;;;;;;;;10.90;99.90;;;;;;5056399;28;20356;-73
2022/09/19 00:51:47;;;;;;;;;;;11.00;99.90;;;;;;5055941;28;19955;-73
2022/09/19 00:54:14;;;;;;;;;;;11.60;99.90;;;;;;5021206;28;19921;-73
2022/09/19 00:56:41;;;;;;;;;;;12.20;99.90;;;;;;5053824;28;19924;-72
2022/09/19 00:59:08;;;;;;;;;;;11.00;99.90;;;;;;5054060;28;19947;-72
2022/09/19 01:01:34;;;;;;;;;;;12.80;99.90;;;;;;5053491;28;20291;-72
2022/09/19 01:04:01;;;;;;;;;;;11.40;99.90;;;;;;5054248;28;19978;-72
2022/09/19 01:06:45;;;;;;;;;;;10.90;99.90;;;;;;5037641;28;19947;-72
2022/09/19 01:09:16;;;;;;;;;;;11.30;99.90;;;;;;5037872;28;19920;-72
2022/09/19 01:12:01;;;;;;;;;;;11.00;99.90;;;;;;5053216;28;19920;-72
2022/09/19 01:14:41;;;;;;;;;;;12.50;99.90;;;;;;5026282;28;20398;-73
2022/09/19 01:17:18;;;;;;;;;;;12.30;99.90;;;;;;5053694;28;19920;-72
2022/09/19 01:19:58;;;;;;;;;;;12.50;99.90;;;;;;5057079;28;19923;-73
2022/09/19 01:22:41;;;;;;;;;;;11.10;99.90;;;;;;5050387;28;19916;-72
2022/09/19 01:25:12;;;;;;;;;;;12.70;99.90;;;;;;5046063;28;19959;-73
2022/09/19 01:27:50;;;;;;;;;;;12.10;99.90;;;;;;5051340;28;20401;-72
2022/09/19 01:30:16;;;;;;;;;;;12.50;99.90;;;;;;5052804;28;19963;-73
2022/09/19 01:32:54;;;;;;;;;;;11.00;99.90;;;;;;5043627;28;19953;-73
2022/09/19 01:35:24;;;;;;;;;;;12.80;99.90;;;;;;5033272;28;19924;-72
2022/09/19 01:37:52;;;;;;;;;;;12.40;99.90;;;;;;5050356;28;19963;-73
2022/09/19 01:40:19;;;;;;;;;;;11.20;99.90;;;;;;5037085;28;19924;-73
2022/09/19 01:42:50;;;;;;;;;;;10.90;99.90;;;;;;5054075;28;19970;-73
2022/09/19 01:45:16;;;;;;;;;;;12.80;99.90;;;;;;5044681;28;19924;-73
2022/09/19 01:48:00;;;;;;;;;;;12.30;99.90;;;;;;5053819;28;20256;-73
2022/09/19 01:50:38;;;;;;;;;;;11.20;99.90;;;;;;5054624;28;19952;-73
2022/09/19 01:53:19;;;;;;;;;;;12.80;99.90;;;;;;5054956;28;19920;-73
2022/09/19 01:55:49;;;;;;;;;;;11.20;99.90;;;;;;5049845;28;19925;-73
2022/09/19 01:58:21;;;;;;;;;;;12.70;99.90;;;;;;5046334;28;20017;-73
2022/09/19 02:00:52;;;;;;;;;;;11.30;99.90;;;;;;5051413;28;19920;-73
2022/09/19 02:03:23;;;;;;;;;;;11.50;99.90;;;;;;5051424;28;19916;-73
2022/09/19 02:05:59;;;;;;;;;;;11.20;99.90;;;;;;5050054;28;19924;-73
2022/09/19 02:08:28;;;;;;;;;;;12.90;99.90;;;;;;5033690;28;21836;-73
2022/09/19 02:10:57;;;;;;;;;;;11.20;99.90;;;;;;5034333;28;19916;-73
2022/09/19 02:13:27;;;;;;;;;;;11.10;99.90;;;;;;5053827;28;20380;-73
2022/09/19 02:15:59;;;;;;;;;;;12.10;99.90;;;;;;5050447;28;19928;-74
2022/09/19 02:18:35;;;;;;;;;;;11.10;99.90;;;;;;5052339;28;19920;-74
2022/09/19 02:21:04;;;;;;;;;;;11.10;99.90;;;;;;5053227;28;20003;-73
2022/09/19 02:23:33;;;;;;;;;;;11.00;99.90;;;;;;5052736;28;19920;-73
2022/09/19 02:26:02;;;;;;;;;;;11.70;99.90;;;;;;5036584;28;20389;-73
2022/09/19 02:28:30;;;;;;;;;;;11.80;99.90;;;;;;5052779;28;20012;-73
2022/09/19 02:30:56;;;;;;;;;;;11.10;99.90;;;;;;5050735;28;19962;-73
2022/09/19 02:33:22;;;;;;;;;;;12.50;99.90;;;;;;5033542;28;19924;-73
2022/09/19 02:35:58;;;;;;;;;;;11.10;99.90;;;;;;5051738;28;20306;-73
2022/09/19 02:38:23;;;;;;;;;;;12.70;99.90;;;;;;5052871;28;19920;-73
2022/09/19 02:41:04;;;;;;;;;;;11.10;99.90;;;;;;5052973;28;19923;-74
2022/09/19 02:43:30;;;;;;;;;;;12.20;99.90;;;;;;5051208;28;19924;-73
2022/09/19 02:46:00;;;;;;;;;;;11.00;99.90;;;;;;5036057;28;20290;-73
2022/09/19 02:48:28;;;;;;;;;;;12.30;99.90;;;;;;5052599;28;19917;-73
2022/09/19 02:51:26;;;;;;;;;;;12.50;99.90;;;;;;5049748;28;19999;-72
2022/09/19 02:53:55;;;;;;;;;;;10.80;99.90;;;;;;5001746;28;19920;-73
2022/09/19 02:56:28;;;;;;;;;;;10.90;99.90;;;;;;5052327;28;19928;-72
2022/09/19 02:58:59;;;;;;;;;;;12.60;99.90;;;;;;5053394;28;19990;-72
2022/09/19 03:01:27;;;;;;;;;;;11.20;99.90;;;;;;5053687;28;20008;-73
2022/09/19 03:04:14;;;;;;;;;;;10.90;99.90;;;;;;5053702;28;20309;-73
2022/09/19 03:06:58;;;;;;;;;;;11.60;99.90;;;;;;5028734;28;19924;-73
2022/09/19 03:09:26;;;;;;;;;;;12.50;99.90;;;;;;5042040;28;20435;-73
2022/09/19 03:11:55;;;;;;;;;;;12.60;99.90;;;;;;5052253;28;20383;-73
2022/09/19 03:14:20;;;;;;;;;;;12.40;99.90;;;;;;5049559;28;19943;-73
2022/09/19 03:16:48;;;;;;;;;;;11.60;99.90;;;;;;5052543;28;20355;-73
2022/09/19 03:19:14;;;;;;;;;;;11.40;99.90;;;;;;5052173;28;19988;-73
2022/09/19 03:21:40;;;;;;;;;;;10.80;99.90;;;;;;5053142;28;19943;-73
2022/09/19 03:24:06;;;;;;;;;;;10.80;99.90;;;;;;5030851;28;19921;-73
2022/09/19 03:26:34;;;;;;;;;;;11.40;99.90;;;;;;5052243;28;19927;-72
2022/09/19 03:29:00;;;;;;;;;;;11.10;99.90;;;;;;5031771;28;19923;-72
2022/09/19 03:31:26;;;;;;;;;;;12.70;99.90;;;;;;5034812;28;19923;-72
2022/09/19 03:33:52;;;;;;;;;;;12.00;99.90;;;;;;5052137;28;19920;-74
2022/09/19 03:36:18;;;;;;;;;;;11.10;99.90;;;;;;5051907;28;19924;-74
2022/09/19 03:38:44;;;;;;;;;;;12.90;99.90;;;;;;5049868;28;19916;-73
2022/09/19 03:41:13;;;;;;;;;;;12.80;99.90;;;;;;5052316;28;19921;-73
2022/09/19 03:43:42;;;;;;;;;;;11.30;99.90;;;;;;5050616;28;19920;-72
2022/09/19 03:46:10;;;;;;;;;;;11.30;99.90;;;;;;5046690;28;19920;-72
2022/09/19 03:48:36;;;;;;;;;;;11.20;99.90;;;;;;5035339;28;19970;-72
2022/09/19 03:51:01;;;;;;;;;;;12.80;99.90;;;;;;5035865;28;19943;-73
2022/09/19 03:53:27;;;;;;;;;;;11.40;99.90;;;;;;5050718;28;19916;-73
2022/09/19 03:55:54;;;;;;;;;;;12.80;99.90;;;;;;5050599;28;19920;-73
2022/09/19 03:58:20;;;;;;;;;;;11.80;99.90;;;;;;5035086;28;20270;-73
2022/09/19 04:00:45;;;;;;;;;;;12.60;99.90;;;;;;5048411;28;19917;-73
2022/09/19 04:03:11;;;;;;;;;;;11.10;99.90;;;;;;5050581;28;19977;-79
2022/09/19 04:05:36;;;;;;;;;;;11.20;99.90;;;;;;5050042;28;19978;-79
2022/09/19 04:08:02;;;;;;;;;;;11.30;99.90;;;;;;5038935;28;19928;-78
2022/09/19 04:10:28;;;;;;;;;;;11.30;99.90;;;;;;5022114;28;19928;-79
2022/09/19 04:12:53;;;;;;;;;;;11.10;99.90;;;;;;5048436;28;19924;-79
2022/09/19 04:15:19;;;;;;;;;;;10.90;99.90;;;;;;5050536;28;19924;-79
2022/09/19 04:17:44;;;;;;;;;;;11.10;99.90;;;;;;5052206;28;19954;-79
2022/09/19 04:20:10;;;;;;;;;;;12.70;99.90;;;;;;5051082;28;20378;-78
2022/09/19 04:22:37;;;;;;;;;;;10.80;99.90;;;;;;5025905;28;19995;-80
2022/09/19 04:25:10;;;;;;;;;;;12.50;99.90;;;;;;5044907;28;19994;-80
2022/09/19 04:27:39;;;;;;;;;;;11.00;99.90;;;;;;5034377;28;19998;-80
2022/09/19 04:30:06;;;;;;;;;;;11.20;99.90;;;;;;5051706;28;19924;-80
2022/09/19 04:32:31;;;;;;;;;;;10.80;99.90;;;;;;5053485;28;19922;-80
2022/09/19 04:34:59;;;;;;;;;;;12.30;99.90;;;;;;5060032;28;19920;-80
2022/09/19 04:37:25;;;;;;;;;;;12.50;99.90;;;;;;5053091;28;19924;-80
2022/09/19 04:39:51;;;;;;;;;;;12.30;99.90;;;;;;5036673;28;19943;-80
2022/09/19 04:42:17;;;;;;;;;;;12.30;99.90;;;;;;5052578;28;20316;-81
2022/09/19 04:44:42;;;;;;;;;;;10.70;99.90;;;;;;5046441;28;19921;-81
2022/09/19 04:47:08;;;;;;;;;;;11.20;99.90;;;;;;5049814;28;19928;-81
2022/09/19 04:49:41;;;;;;;;;;;12.60;99.90;;;;;;5049130;28;20443;-80
2022/09/19 04:52:09;;;;;;;;;;;11.10;99.90;;;;;;5047938;28;20007;-80
2022/09/19 04:54:37;;;;;;;;;;;11.90;99.90;;;;;;5054001;28;20344;-79
2022/09/19 04:57:06;;;;;;;;;;;12.00;99.90;;;;;;5039395;28;20383;-80
2022/09/19 04:59:33;;;;;;;;;;;12.10;99.90;;;;;;5052894;28;19917;-80
2022/09/19 05:01:59;;;;;;;;;;;12.90;99.90;;;;;;5056149;28;20014;-80
2022/09/19 05:04:25;;;;;;;;;;;11.20;99.90;;;;;;5056510;28;19966;-80
2022/09/19 05:06:51;;;;;;;;;;;12.50;99.90;;;;;;5039613;28;20328;-80
2022/09/19 05:09:17;;;;;;;;;;;11.30;99.90;;;;;;5038098;28;19924;-81
2022/09/19 05:11:46;;;;;;;;;;;12.40;99.90;;;;;;5054871;28;19920;-79
2022/09/19 05:14:14;;;;;;;;;;;12.60;99.90;;;;;;5054513;28;19920;-81
2022/09/19 05:16:40;;;;;;;;;;;13.00;99.90;;;;;;5054406;28;19931;-81
2022/09/19 05:19:06;;;;;;;;;;;12.70;99.90;;;;;;5039288;28;19920;-80
2022/09/19 05:21:33;;;;;;;;;;;11.60;99.90;;;;;;5037946;28;20015;-79
2022/09/19 05:23:58;;;;;;;;;;;12.60;99.90;;;;;;5052022;28;20091;-80
2022/09/19 05:26:24;;;;;;;;;;;12.50;99.90;;;;;;5053200;28;20048;-80
2022/09/19 05:28:50;;;;;;;;;;;12.90;99.90;;;;;;5055023;28;19943;-80
2022/09/19 05:31:18;;;;;;;;;;;11.40;99.90;;;;;;5055219;28;20343;-80
2022/09/19 05:33:44;;;;;;;;;;;12.80;99.90;;;;;;5039171;28;19959;-81
2022/09/19 05:36:10;;;;;;;;;;;13.00;99.90;;;;;;5033955;28;20082;-81
2022/09/19 05:38:36;;;;;;;;;;;11.50;99.90;;;;;;5030612;28;19920;-81
2022/09/19 05:41:02;;;;;;;;;;;12.90;99.90;;;;;;5052406;28;20026;-82
2022/09/19 05:43:28;;;;;;;;;;;11.60;99.90;;;;;;5049655;28;19924;-74
2022/09/19 05:45:55;;;;;;;;;;;12.10;99.90;;;;;;5055409;28;20261;-74
2022/09/19 05:48:20;;;;;;;;;;;12.90;99.90;;;;;;5026941;28;19921;-73
2022/09/19 05:50:46;;;;;;;;;;;11.60;99.90;;;;;;5053487;28;19969;-73
2022/09/19 05:55:57;;;;;;;;;;;12.90;99.90;;;;;;5054796;28;19974;-72
2022/09/19 05:58:24;;;;;;;;;;;11.70;99.90;;;;;;5055095;28;19920;-73
2022/09/19 06:00:50;;;;;;;;;;;11.30;99.90;;;;;;5054041;28;20425;-73
2022/09/19 06:03:16;;;;;;;;;;;12.30;99.90;;;;;;5049359;28;19921;-73
2022/09/19 06:05:43;;;;;;;;;;;11.30;99.90;;;;;;5029214;28;19924;-72
2022/09/19 06:08:09;;;;;;;;;;;11.60;99.90;;;;;;5027422;28;19920;-73
2022/09/19 06:10:39;;;;;;;;;;;12.80;99.90;;;;;;5050580;28;19920;-73
2022/09/19 06:13:12;;;;;;;;;;;11.80;99.90;;;;;;5040837;28;20341;-73
2022/09/19 06:15:38;;;;;;;;;;;11.30;99.90;;;;;;5065337;28;19928;-72
2022/09/19 06:18:03;;;;;;;;;;;12.80;99.90;;;;;;5040972;28;19921;-72
2022/09/19 06:20:29;;;;;;;;;;;12.10;99.90;;;;;;5020680;28;19963;-74
2022/09/19 06:22:55;;;;;;;;;;;11.40;99.90;;;;;;5051470;28;20391;-74
2022/09/19 06:25:21;;;;;;;;;;;12.90;99.90;;;;;;5029302;28;20356;-75
2022/09/19 06:27:56;;;;;;;;;;;13.10;99.90;;;;;;5049010;28;19978;-74
2022/09/19 06:30:22;;;;;;;;;;;13.10;99.90;;;;;;5049083;28;19924;-74
2022/09/19 06:32:49;;;;;;;;;;;11.90;99.90;;;;;;5025037;28;20291;-74
2022/09/19 06:35:14;;;;;;;;;;;12.60;99.90;;;;;;5052814;28;20384;-74
2022/09/19 06:37:40;;;;;;;;;;;12.60;99.90;;;;;;5066582;28;19916;-73
2022/09/19 06:40:06;;;;;;;;;;;12.90;99.90;;;;;;5050104;28;19962;-73
2022/09/19 06:42:32;;;;;;;;;;;12.90;99.90;;;;;;5035922;28;19920;-74
2022/09/19 06:44:57;;;;;;;;;;;12.90;99.90;;;;;;5036554;28;19916;-73
2022/09/19 06:47:23;;;;;;;;;;;11.60;99.90;;;;;;5053007;28;19920;-72
2022/09/19 06:49:48;;;;;;;;;;;12.80;99.90;;;;;;5033076;28;19917;-73
2022/09/19 06:52:14;;;;;;;;;;;13.00;99.90;;;;;;5029396;28;19955;-72
2022/09/19 06:54:40;;;;;;;;;;;11.80;99.90;;;;;;5042904;28;20430;-72
2022/09/19 06:57:05;;;;;;;;;;;12.10;99.90;;;;;;5044243;28;19925;-72
2022/09/19 06:59:31;;;;;;;;;;;12.60;99.90;;;;;;5053723;28;19967;-72
2022/09/19 07:01:57;;;;;;;;;;;13.40;99.90;;;;;;5050278;28;19969;-72
2022/09/19 07:04:23;;;;;;;;;;;13.50;99.90;;;;;;5029995;28;19927;-73
2022/09/19 07:06:49;;;;;;;;;;;12.90;99.90;;;;;;5053813;28;19924;-73
2022/09/19 07:09:14;;;;;;;;;;;13.70;99.90;;;;;;5043236;28;19946;-74
2022/09/19 07:11:40;;;;;;;;;;;12.80;99.90;;;;;;5048919;28;19960;-74
2022/09/19 07:14:06;;;;;;;;;;;12.90;99.90;;;;;;5048687;28;19916;-74
2022/09/19 07:16:32;;;;;;;;;;;13.70;99.90;;;;;;5047413;28;19924;-74
2022/09/19 07:18:57;;;;;;;;;;;12.80;99.90;;;;;;5029911;28;19967;-73
2022/09/19 07:21:23;;;;;;;;;;;13.70;99.90;;;;;;5038417;28;19924;-73
2022/09/19 07:23:49;;;;;;;;;;;13.60;99.90;;;;;;5049674;28;19926;-73
2022/09/19 07:26:15;;;;;;;;;;;12.90;99.90;;;;;;5029578;28;19920;-74
2022/09/19 07:28:41;;;;;;;;;;;13.70;99.90;;;;;;5028818;28;19928;-74
2022/09/19 07:31:06;;;;;;;;;;;13.60;99.90;;;;;;5050302;28;19921;-71
2022/09/19 07:33:32;;;;;;;;;;;13.20;99.90;;;;;;5052664;28;19916;-72
2022/09/19 07:35:58;;;;;;;;;;;13.50;99.90;;;;;;5050846;28;19921;-70
2022/09/19 07:38:26;;;;;;;;;;;13.30;99.90;;;;;;5046325;28;19931;-80
2022/09/19 07:40:53;;;;;;;;;;;13.70;99.90;;;;;;5050419;28;19924;-78
2022/09/19 07:43:18;;;;;;;;;;;13.90;99.90;;;;;;5045620;28;19935;-79
2022/09/19 07:45:45;;;;;;;;;;;13.00;99.90;;;;;;5064589;28;20287;-79
2022/09/19 07:48:11;;;;;;;;;;;13.50;99.90;;;;;;5065648;28;19916;-80
2022/09/19 07:50:37;;;;;;;;;;;12.40;99.90;;;;;;5053681;28;19916;-79
2022/09/19 07:53:13;;;;;;;;;;;12.90;99.90;;;;;;5016753;28;19923;-79
2022/09/19 07:55:41;;;;;;;;;;;12.70;99.90;;;;;;5064438;28;20112;-79
2022/09/19 07:58:06;;;;;;;;;;;11.80;99.90;;;;;;5050679;28;19973;-79
2022/09/19 08:00:33;;;;;;;;;;;12.60;99.90;;;;;;5049944;28;20007;-80
2022/09/19 08:03:00;;;;;;;;;;;12.30;99.90;;;;;;5034715;28;20084;-79
2022/09/19 08:05:27;;;;;;;;;;;12.60;99.90;;;;;;5057546;28;20339;-79
2022/09/19 08:07:52;;;;;;;;;;;11.70;99.90;;;;;;5051362;28;19934;-83
2022/09/19 08:10:19;;;;;;;;;;;12.70;99.90;;;;;;5033500;28;20392;-80
2022/09/19 08:12:45;;;;;;;;;;;12.20;99.90;;;;;;5050970;28;19971;-79
2022/09/19 08:15:15;;;;;;;;;;;12.70;99.90;;;;;;5032998;28;19932;-79
2022/09/19 08:18:00;;;;;;;;;;;13.00;99.90;;;;;;5044304;28;20386;-79
2022/09/19 08:20:27;;;;;;;;;;;13.40;99.90;;;;;;5051113;28;19920;-79
2022/09/19 08:22:56;;;;;;;;;;;13.80;99.90;;;;;;5046637;28;19920;-78
2022/09/19 08:25:22;;;;;;;;;;;14.00;99.90;;;;;;5047463;28;19956;-79
2022/09/19 08:27:48;;;;;;;;;;;13.90;99.90;;;;;;5032084;28;20339;-79
2022/09/19 08:30:14;;;;;;;;;;;13.60;99.90;;;;;;5053749;28;19943;-81
2022/09/19 08:32:39;;;;;;;;;;;14.20;99.90;;;;;;5054966;28;19939;-80
2022/09/19 08:35:05;;;;;;;;;;;14.70;99.90;;;;;;5056672;28;20714;-79
2022/09/19 08:37:31;;;;;;;;;;;14.30;99.90;;;;;;5031282;28;20023;-80
2022/09/19 08:40:15;;;;;;;;;;;14.30;99.90;;;;;;5047640;28;19920;-81
2022/09/19 08:42:51;;;;;;;;;;;14.60;99.90;;;;;;5050041;28;20368;-82
2022/09/19 08:45:30;;;;;;;;;;;14.90;99.90;;;;;;5054368;28;19928;-83
2022/09/19 08:47:57;;;;;;;;;;;14.60;99.90;;;;;;5052054;28;19971;-80
2022/09/19 08:50:25;;;;;;;;;;;14.80;99.90;;;;;;5052426;28;20382;-81
2022/09/19 08:52:55;;;;;;;;;;;14.70;99.90;;;;;;5033207;28;19921;-81
2022/09/19 08:55:22;;;;;;;;;;;14.80;99.90;;;;;;5050282;28;19931;-82
2022/09/19 08:57:57;;;;;;;;;;;14.90;99.90;;;;;;5050533;28;20058;-82
2022/09/19 09:00:23;;;;;;;;;;;14.90;99.90;;;;;;5048514;28;20012;-82
2022/09/19 09:02:59;;;;;;;;;;;14.90;99.90;;;;;;5052913;28;20344;-81
2022/09/19 09:05:37;;;;;;;;;;;15.10;99.90;;;;;;5045457;28;19917;-81
2022/09/19 09:08:17;;;;;;;;;;;15.10;99.90;;;;;;5051548;28;19917;-81
2022/09/19 09:10:50;;;;;;;;;;;15.20;99.90;;;;;;5031778;28;20285;-81
2022/09/19 09:13:16;;;;;;;;;;;15.40;99.90;;;;;;5051880;28;20237;-80
2022/09/19 09:15:48;;;;;;;;;;;15.50;99.90;;;;;;5051560;28;20038;-80
2022/09/19 09:18:32;;;;;;;;;;;15.80;99.90;;;;;;5049638;28;20064;-81
2022/09/19 09:21:21;;;;;;;;;;;15.70;99.90;;;;;;5047711;28;19916;-78
2022/09/19 09:23:50;;;;;;;;;;;15.40;99.90;;;;;;5043044;28;20287;-82
2022/09/19 09:26:17;;;;;;;;;;;15.30;99.90;;;;;;5051601;28;19923;-81
2022/09/19 09:28:51;;;;;;;;;;;15.20;99.90;;;;;;5048734;28;19917;-82
2022/09/19 09:31:24;;;;;;;;;;;15.10;99.90;;;;;;5052534;28;20011;-82
2022/09/19 09:33:57;;;;;;;;;;;15.40;99.90;;;;;;5033087;28;19947;-77
2022/09/19 09:36:27;;;;;;;;;;;15.70;99.90;;;;;;5048691;28;19924;-83
2022/09/19 09:38:55;;;;;;;;;;;15.30;99.90;;;;;;5052212;28;20006;-78
2022/09/19 09:41:45;;;;;;;;;;;14.40;99.90;;;;;;5051749;28;20288;-78
2022/09/19 09:44:13;;;;;;;;;;;13.40;99.90;;;;;;5042380;28;19965;-77
2022/09/19 09:47:19;;;;;;;;;;;12.20;99.90;;;;;;5034198;28;19924;-76
2022/09/19 09:49:46;;;;;;;;;;;12.50;99.90;;;;;;4994527;28;19963;-77
2022/09/19 09:52:33;;;;;;;;;;;11.60;99.90;;;;;;4979130;28;20401;-77
2022/09/19 09:57:52;;;;;;;;;;;11.30;99.90;;;;;;5051843;28;19920;-77
2022/09/19 10:03:36;;;;;;;;;;;12.20;99.90;;;;;;5052329;28;19974;-77
2022/09/19 10:06:04;;;;;;;;;;;12.50;99.90;;;;;;5035184;28;20402;-78
2022/09/19 10:08:35;;;;;;;;;;;11.50;99.90;;;;;;5051926;28;19925;-78
2022/09/19 10:11:13;;;;;;;;;;;11.60;99.90;;;;;;5051970;28;20380;-78
2022/09/19 10:13:46;;;;;;;;;;;11.70;99.90;;;;;;5035472;28;19970;-78
2022/09/19 10:16:14;;;;;;;;;;;11.70;99.90;;;;;;5052142;28;19947;-78
2022/09/19 10:18:42;;;;;;;;;;;12.70;99.90;;;;;;5035916;28;19924;-78
2022/09/19 10:21:08;;;;;;;;;;;13.30;99.90;;;;;;5052408;28;19963;-78
2022/09/19 10:23:34;;;;;;;;;;;12.30;99.90;;;;;;5053032;28;19917;-78
2022/09/19 10:26:02;;;;;;;;;;;12.50;99.90;;;;;;5052146;28;19916;-77
2022/09/19 10:28:31;;;;;;;;;;;12.50;99.90;;;;;;5035811;28;20303;-78
2022/09/19 10:30:58;;;;;;;;;;;14.10;99.90;;;;;;5051895;28;19921;-82
2022/09/19 10:33:38;;;;;;;;;;;14.50;99.90;;;;;;5051908;28;19917;-80
2022/09/19 10:36:05;;;;;;;;;;;14.30;99.90;;;;;;5051347;28;19971;-79
2022/09/19 10:38:37;;;;;;;;;;;13.90;99.90;;;;;;5051142;28;19920;-80
2022/09/19 10:41:04;;;;;;;;;;;14.40;99.90;;;;;;5051288;28;19916;-82
2022/09/19 10:43:46;;;;;;;;;;;14.30;99.90;;;;;;5051005;28;19940;-81
2022/09/19 10:46:16;;;;;;;;;;;14.20;99.90;;;;;;5050807;28;20007;-81
2022/09/19 10:48:49;;;;;;;;;;;14.70;99.90;;;;;;5050878;28;19921;-80
2022/09/19 10:51:15;;;;;;;;;;;14.90;99.90;;;;;;5050682;28;20223;-81
2022/09/19 10:53:45;;;;;;;;;;;14.50;99.90;;;;;;5051152;28;19955;-81
2022/09/19 10:56:25;;;;;;;;;;;14.70;99.90;;;;;;5050159;28;19921;-81
2022/09/19 10:58:59;;;;;;;;;;;15.00;99.90;;;;;;5049095;28;20392;-81
2022/09/19 11:01:26;;;;;;;;;;;15.20;99.90;;;;;;5050569;28;20437;-80
2022/09/19 11:03:59;;;;;;;;;;;15.60;99.90;;;;;;5050371;28;20292;-82
2022/09/19 11:06:24;;;;;;;;;;;15.40;99.90;;;;;;5049770;28;19917;-82
2022/09/19 11:08:51;;;;;;;;;;;15.40;99.90;;;;;;5050116;28;19927;-81
2022/09/19 11:11:49;;;;;;;;;;;15.60;99.90;;;;;;5049271;28;20391;-82
2022/09/19 11:14:26;;;;;;;;;;;15.50;99.90;;;;;;5033704;28;19920;-81
2022/09/19 11:17:00;;;;;;;;;;;15.40;99.90;;;;;;5030901;28;20303;-81
2022/09/19 11:19:48;;;;;;;;;;;15.80;99.90;;;;;;5050847;28;19933;-80
2022/09/19 11:22:14;;;;;;;;;;;15.80;99.90;;;;;;5049902;28;19916;-80
2022/09/19 11:24:50;;;;;;;;;;;15.50;99.90;;;;;;5050046;28;19943;-80
2022/09/19 11:27:24;;;;;;;;;;;15.60;99.90;;;;;;5049756;28;20281;-80
2022/09/19 11:30:11;;;;;;;;;;;15.50;99.90;;;;;;5049802;28;20446;-80
2022/09/19 11:32:39;;;;;;;;;;;15.50;99.90;;;;;;5049596;28;19921;-80
2022/09/19 11:35:07;;;;;;;;;;;15.80;99.90;;;;;;5048656;28;19924;-81
2022/09/19 11:37:47;;;;;;;;;;;16.10;99.90;;;;;;5049637;28;19925;-81
2022/09/19 11:40:12;;;;;;;;;;;16.30;99.90;;;;;;5049529;28;19928;-80
2022/09/19 11:42:50;;;;;;;;;;;16.50;99.90;;;;;;5049609;28;19924;-80
2022/09/19 11:45:17;;;;;;;;;;;16.10;99.90;;;;;;5050011;28;19920;-79
2022/09/19 11:48:01;;;;;;;;;;;15.90;99.90;;;;;;5049748;28;20004;-80
2022/09/19 11:50:46;;;;;;;;;;;16.10;99.90;;;;;;5049413;28;19916;-81
2022/09/19 11:53:11;;;;;;;;;;;16.50;99.90;;;;;;5056117;28;19920;-81
2022/09/19 11:55:41;;;;;;;;;;;16.90;99.90;;;;;;5059031;28;19943;-82
2022/09/19 11:58:12;;;;;;;;;;;16.90;99.90;;;;;;5057381;28;20015;-82
2022/09/19 12:00:50;;;;;;;;;;;16.70;99.90;;;;;;5059567;28;19916;-82
2022/09/19 12:03:24;;;;;;;;;;;16.40;99.90;;;;;;5051960;28;19963;-83
2022/09/19 12:05:56;;;;;;;;;;;16.10;99.90;;;;;;5038925;28;19927;-83
2022/09/19 12:08:22;;;;;;;;;;;16.10;99.90;;;;;;5055897;28;19927;-80
2022/09/19 12:10:50;;;;;;;;;;;16.10;99.90;;;;;;5056340;28;19916;-82
2022/09/19 12:13:31;;;;;;;;;;;16.50;99.90;;;;;;5056113;28;20384;-82
2022/09/19 12:16:10;;;;;;;;;;;16.70;99.90;;;;;;5055863;28;19924;-82
2022/09/19 12:18:44;;;;;;;;;;;16.50;99.90;;;;;;5055933;28;20396;-82
2022/09/19 12:21:11;;;;;;;;;;;16.20;99.90;;;;;;5055752;28;20399;-82
2022/09/19 12:26:27;;;;;;;;;;;16.80;99.90;;;;;;5055677;28;20001;-81
2022/09/19 12:29:01;;;;;;;;;;;17.20;99.90;;;;;;5038717;28;19932;-82
2022/09/19 12:31:32;;;;;;;;;;;17.30;99.90;;;;;;5054443;28;19943;-82
2022/09/19 12:34:24;;;;;;;;;;;17.30;99.90;;;;;;5055183;28;20574;-82
2022/09/19 12:36:56;;;;;;;;;;;17.30;99.90;;;;;;5039668;28;19943;-81
2022/09/19 12:39:35;;;;;;;;;;;16.80;99.90;;;;;;5055847;28;19917;-81
2022/09/19 12:42:09;;;;;;;;;;;16.50;99.90;;;;;;5052826;28;20278;-82
2022/09/19 12:44:52;;;;;;;;;;;16.50;99.90;;;;;;5041364;28;19920;-81
2022/09/19 12:47:18;;;;;;;;;;;16.10;99.90;;;;;;5056879;28;19931;-81
2022/09/19 12:49:47;;;;;;;;;;;16.20;99.90;;;;;;5059805;28;19928;-81
2022/09/19 12:52:18;;;;;;;;;;;16.50;99.90;;;;;;5060195;28;19963;-80
2022/09/19 12:54:57;;;;;;;;;;;16.90;99.90;;;;;;5042232;28;19927;-80
2022/09/19 12:57:41;;;;;;;;;;;16.70;99.90;;;;;;5057404;28;19955;-81
2022/09/19 13:00:10;;;;;;;;;;;16.40;99.90;;;;;;5052625;28;19924;-81
2022/09/19 13:02:43;;;;;;;;;;;16.10;99.90;;;;;;5048698;28;19920;-81
2022/09/19 13:05:22;;;;;;;;;;;16.20;99.90;;;;;;5056857;28;19916;-81
2022/09/19 13:07:54;;;;;;;;;;;16.60;99.90;;;;;;5056022;28;20295;-80
2022/09/19 13:10:28;;;;;;;;;;;16.60;99.90;;;;;;5056022;28;19924;-81
2022/09/19 13:13:01;;;;;;;;;;;16.50;99.90;;;;;;5060859;28;19917;-82
2022/09/19 13:15:30;;;;;;;;;;;16.30;99.90;;;;;;5032714;28;20027;-80
2022/09/19 13:23:35;;;;;;;;;;;15.70;99.90;;;;;;5055161;28;19920;-82
2022/09/19 13:26:16;;;;;;;;;;;15.70;99.90;;;;;;5057516;28;20294;-81
2022/09/19 13:28:45;;;;;;;;;;;15.80;99.90;;;;;;5056230;28;20027;-81
2022/09/19 13:31:12;;;;;;;;;;;16.10;99.90;;;;;;5039822;28;20333;-82
2022/09/19 13:33:45;;;;;;;;;;;16.20;99.90;;;;;;5056879;28;20357;-82
2022/09/19 13:36:13;;;;;;;;;;;16.10;99.90;;;;;;5056647;28;20011;-81
2022/09/19 13:38:46;;;;;;;;;;;16.20;99.90;;;;;;5055769;28;19916;-82
2022/09/19 13:41:26;;;;;;;;;;;16.50;99.90;;;;;;5040748;28;19920;-81
2022/09/19 13:44:00;;;;;;;;;;;16.40;99.90;;;;;;5026329;28;20337;-81
2022/09/19 13:46:47;;;;;;;;;;;16.30;99.90;;;;;;5055721;28;20767;-81
2022/09/19 13:49:29;;;;;;;;;;;16.40;99.90;;;;;;5011144;28;19916;-80
2022/09/19 13:51:57;;;;;;;;;;;16.20;99.90;;;;;;5056485;28;19917;-82
2022/09/19 13:54:25;;;;;;;;;;;15.70;99.90;;;;;;5056457;28;20056;-82
2022/09/19 13:57:03;;;;;;;;;;;15.40;99.90;;;;;;5056413;28;19925;-81
2022/09/19 13:59:31;;;;;;;;;;;15.10;99.90;;;;;;5025676;28;19917;-81
2022/09/19 14:01:57;;;;;;;;;;;14.70;99.90;;;;;;5056101;28;20074;-81
2022/09/19 14:07:17;;;;;;;;;;;14.40;99.90;;;;;;5048184;28;19967;-81
2022/09/19 14:09:43;;;;;;;;;;;14.10;99.90;;;;;;5033572;28;19916;-80
2022/09/19 14:12:35;;;;;;;;;;;14.20;99.90;;;;;;5023168;28;20372;-80
2022/09/19 14:15:02;;;;;;;;;;;14.50;99.90;;;;;;5026383;28;19917;-81
2022/09/19 14:17:35;;;;;;;;;;;15.20;99.90;;;;;;5040314;28;19987;-81
2022/09/19 14:20:05;;;;;;;;;;;15.50;99.90;;;;;;5056651;28;19916;-80
2022/09/19 14:22:34;;;;;;;;;;;15.30;99.90;;;;;;5039461;28;20368;-81
2022/09/19 14:25:13;;;;;;;;;;;15.40;99.90;;;;;;5039794;28;19924;-81
2022/09/19 14:27:51;;;;;;;;;;;15.60;99.90;;;;;;5055738;28;20376;-81
2022/09/19 14:30:21;;;;;;;;;;;16.00;99.90;;;;;;5039651;28;19916;-82
2022/09/19 14:32:58;;;;;;;;;;;15.80;99.90;;;;;;5039859;28;20060;-82
2022/09/19 14:35:31;;;;;;;;;;;15.90;99.90;;;;;;5039633;28;20443;-82
2022/09/19 14:38:06;;;;;;;;;;;16.10;99.90;;;;;;5039660;28;19927;-82
2022/09/19 14:40:33;;;;;;;;;;;16.20;99.90;;;;;;5056211;28;19962;-82
2022/09/19 14:43:17;;;;;;;;;;;15.90;99.90;;;;;;5039349;28;20279;-81
2022/09/19 14:45:54;;;;;;;;;;;15.70;99.90;;;;;;5056080;28;19916;-82
2022/09/19 14:48:19;;;;;;;;;;;15.80;99.70;;;;;;5039322;28;19921;-82
2022/09/19 14:50:49;;;;;;;;;;;15.90;99.90;;;;;;5055620;28;19916;-82
2022/09/19 14:53:25;;;;;;;;;;;16.10;99.90;;;;;;5037741;28;19917;-82